sensor_id;sensor_type;location;lat;lon;timestamp;P1;durP1;ratioP1;P2;durP2;ratioP2
37459;SDS011;23318;50.966;5.284;2023-07-31T00:00:24;9.00;;;3.60;;
37459;SDS011;23318;50.966;5.284;2023-07-31T00:02:51;12.20;;;3.60;;
37459;SDS011;23318;50.966;5.284;2023-07-31T00:05:17;11.00;;;4.03;;
37459;SDS011;23318;50.966;5.284;2023-07-31T00:07:43;15.68;;;4.47;;
37459;SDS011;23318;50.966;5.284;2023-07-31T00:10:09;20.25;;;4.78;;
37459;SDS011;23318;50.966;5.284;2023-07-31T00:12:34;10.18;;;4.13;;
37459;SDS011;23318;50.966;5.284;2023-07-31T00:15:00;12.40;;;3.60;;
37459;SDS011;23318;50.966;5.284;2023-07-31T00:17:27;11.10;;;4.05;;
37459;SDS011;23318;50.966;5.284;2023-07-31T00:19:53;10.20;;;4.32;;
37459;SDS011;23318;50.966;5.284;2023-07-31T00:22:18;11.95;;;4.50;;
37459;SDS011;23318;50.966;5.284;2023-07-31T00:24:44;13.52;;;4.03;;
37459;SDS011;23318;50.966;5.284;2023-07-31T00:27:10;10.68;;;4.38;;
37459;SDS011;23318;50.966;5.284;2023-07-31T00:29:35;15.68;;;4.18;;
37459;SDS011;23318;50.966;5.284;2023-07-31T00:32:01;11.48;;;3.92;;
37459;SDS011;23318;50.966;5.284;2023-07-31T00:34:27;11.70;;;3.90;;
37459;SDS011;23318;50.966;5.284;2023-07-31T00:36:52;8.93;;;4.43;;
37459;SDS011;23318;50.966;5.284;2023-07-31T00:39:18;13.27;;;4.30;;
37459;SDS011;23318;50.966;5.284;2023-07-31T00:41:44;14.65;;;4.53;;
37459;SDS011;23318;50.966;5.284;2023-07-31T00:44:09;15.40;;;4.50;;
37459;SDS011;23318;50.966;5.284;2023-07-31T00:46:36;16.88;;;4.93;;
37459;SDS011;23318;50.966;5.284;2023-07-31T00:49:02;15.13;;;4.53;;
37459;SDS011;23318;50.966;5.284;2023-07-31T00:51:29;13.55;;;4.43;;
37459;SDS011;23318;50.966;5.284;2023-07-31T00:53:54;13.98;;;4.70;;
37459;SDS011;23318;50.966;5.284;2023-07-31T00:56:21;15.90;;;4.13;;
37459;SDS011;23318;50.966;5.284;2023-07-31T00:58:47;12.57;;;4.22;;
37459;SDS011;23318;50.966;5.284;2023-07-31T01:01:13;18.38;;;4.55;;
37459;SDS011;23318;50.966;5.284;2023-07-31T01:03:39;12.38;;;4.45;;
37459;SDS011;23318;50.966;5.284;2023-07-31T01:09:00;16.83;;;4.53;;
37459;SDS011;23318;50.966;5.284;2023-07-31T01:11:29;14.32;;;4.10;;
37459;SDS011;23318;50.966;5.284;2023-07-31T01:13:56;12.82;;;4.55;;
37459;SDS011;23318;50.966;5.284;2023-07-31T01:16:24;13.68;;;3.85;;
37459;SDS011;23318;50.966;5.284;2023-07-31T01:18:50;9.63;;;3.92;;
37459;SDS011;23318;50.966;5.284;2023-07-31T01:21:48;15.27;;;4.63;;
37459;SDS011;23318;50.966;5.284;2023-07-31T01:24:28;10.20;;;4.20;;
37459;SDS011;23318;50.966;5.284;2023-07-31T01:27:29;13.05;;;4.43;;
37459;SDS011;23318;50.966;5.284;2023-07-31T01:30:00;7.25;;;3.22;;
37459;SDS011;23318;50.966;5.284;2023-07-31T01:32:29;10.77;;;3.92;;
37459;SDS011;23318;50.966;5.284;2023-07-31T01:34:55;18.50;;;5.00;;
37459;SDS011;23318;50.966;5.284;2023-07-31T01:37:27;10.18;;;3.70;;
37459;SDS011;23318;50.966;5.284;2023-07-31T01:39:55;10.57;;;4.25;;
37459;SDS011;23318;50.966;5.284;2023-07-31T01:42:20;8.25;;;4.13;;
37459;SDS011;23318;50.966;5.284;2023-07-31T01:44:46;10.57;;;4.55;;
37459;SDS011;23318;50.966;5.284;2023-07-31T01:47:12;13.10;;;4.43;;
37459;SDS011;23318;50.966;5.284;2023-07-31T01:49:37;15.68;;;4.20;;
37459;SDS011;23318;50.966;5.284;2023-07-31T01:52:03;7.97;;;3.42;;
37459;SDS011;23318;50.966;5.284;2023-07-31T01:54:29;10.18;;;3.75;;
37459;SDS011;23318;50.966;5.284;2023-07-31T01:56:54;9.80;;;4.00;;
37459;SDS011;23318;50.966;5.284;2023-07-31T01:59:20;13.85;;;4.63;;
37459;SDS011;23318;50.966;5.284;2023-07-31T02:01:46;10.77;;;4.82;;
37459;SDS011;23318;50.966;5.284;2023-07-31T02:04:12;15.75;;;4.55;;
37459;SDS011;23318;50.966;5.284;2023-07-31T02:06:37;15.95;;;4.97;;
37459;SDS011;23318;50.966;5.284;2023-07-31T02:09:04;15.40;;;4.28;;
37459;SDS011;23318;50.966;5.284;2023-07-31T02:11:29;8.95;;;4.32;;
37459;SDS011;23318;50.966;5.284;2023-07-31T02:13:55;11.38;;;4.00;;
37459;SDS011;23318;50.966;5.284;2023-07-31T02:16:21;12.27;;;4.50;;
37459;SDS011;23318;50.966;5.284;2023-07-31T02:18:46;17.02;;;5.32;;
37459;SDS011;23318;50.966;5.284;2023-07-31T02:21:12;9.95;;;4.00;;
37459;SDS011;23318;50.966;5.284;2023-07-31T02:23:37;12.65;;;4.70;;
37459;SDS011;23318;50.966;5.284;2023-07-31T02:26:03;13.70;;;4.13;;
37459;SDS011;23318;50.966;5.284;2023-07-31T02:28:29;8.07;;;4.03;;
37459;SDS011;23318;50.966;5.284;2023-07-31T02:30:55;13.07;;;4.68;;
37459;SDS011;23318;50.966;5.284;2023-07-31T02:33:20;18.85;;;4.82;;
37459;SDS011;23318;50.966;5.284;2023-07-31T02:35:46;9.93;;;4.15;;
37459;SDS011;23318;50.966;5.284;2023-07-31T02:38:12;10.18;;;3.70;;
37459;SDS011;23318;50.966;5.284;2023-07-31T02:40:39;14.85;;;4.45;;
37459;SDS011;23318;50.966;5.284;2023-07-31T02:43:06;14.30;;;4.60;;
37459;SDS011;23318;50.966;5.284;2023-07-31T02:45:32;12.55;;;4.22;;
37459;SDS011;23318;50.966;5.284;2023-07-31T02:47:58;13.18;;;4.90;;
37459;SDS011;23318;50.966;5.284;2023-07-31T02:50:24;8.27;;;4.38;;
37459;SDS011;23318;50.966;5.284;2023-07-31T02:52:49;12.27;;;5.28;;
37459;SDS011;23318;50.966;5.284;2023-07-31T02:55:15;12.93;;;4.10;;
37459;SDS011;23318;50.966;5.284;2023-07-31T02:57:40;12.48;;;4.85;;
37459;SDS011;23318;50.966;5.284;2023-07-31T03:00:06;11.90;;;4.57;;
37459;SDS011;23318;50.966;5.284;2023-07-31T03:02:32;10.40;;;4.60;;
37459;SDS011;23318;50.966;5.284;2023-07-31T03:04:58;12.52;;;4.35;;
37459;SDS011;23318;50.966;5.284;2023-07-31T03:07:24;11.88;;;4.82;;
37459;SDS011;23318;50.966;5.284;2023-07-31T03:09:50;10.25;;;4.43;;
37459;SDS011;23318;50.966;5.284;2023-07-31T03:12:15;13.18;;;4.95;;
37459;SDS011;23318;50.966;5.284;2023-07-31T03:14:41;14.00;;;5.47;;
37459;SDS011;23318;50.966;5.284;2023-07-31T03:17:07;13.05;;;4.72;;
37459;SDS011;23318;50.966;5.284;2023-07-31T03:19:32;12.55;;;4.70;;
37459;SDS011;23318;50.966;5.284;2023-07-31T03:22:01;9.88;;;4.00;;
37459;SDS011;23318;50.966;5.284;2023-07-31T03:24:28;11.18;;;4.10;;
37459;SDS011;23318;50.966;5.284;2023-07-31T03:26:54;9.13;;;4.57;;
37459;SDS011;23318;50.966;5.284;2023-07-31T03:29:19;11.65;;;4.75;;
37459;SDS011;23318;50.966;5.284;2023-07-31T03:31:45;10.30;;;4.60;;
37459;SDS011;23318;50.966;5.284;2023-07-31T03:34:10;13.70;;;3.65;;
37459;SDS011;23318;50.966;5.284;2023-07-31T03:36:36;6.43;;;4.35;;
37459;SDS011;23318;50.966;5.284;2023-07-31T03:39:02;10.57;;;4.63;;
37459;SDS011;23318;50.966;5.284;2023-07-31T03:41:28;8.40;;;4.25;;
37459;SDS011;23318;50.966;5.284;2023-07-31T03:43:54;9.48;;;4.22;;
37459;SDS011;23318;50.966;5.284;2023-07-31T03:46:22;7.57;;;4.45;;
37459;SDS011;23318;50.966;5.284;2023-07-31T03:48:49;8.10;;;4.07;;
37459;SDS011;23318;50.966;5.284;2023-07-31T03:51:15;12.10;;;4.35;;
37459;SDS011;23318;50.966;5.284;2023-07-31T03:53:41;8.98;;;4.30;;
37459;SDS011;23318;50.966;5.284;2023-07-31T03:56:07;9.95;;;3.80;;
37459;SDS011;23318;50.966;5.284;2023-07-31T03:58:33;12.70;;;4.45;;
37459;SDS011;23318;50.966;5.284;2023-07-31T04:01:00;6.35;;;3.67;;
37459;SDS011;23318;50.966;5.284;2023-07-31T04:03:25;13.55;;;3.95;;
37459;SDS011;23318;50.966;5.284;2023-07-31T04:05:53;8.05;;;3.83;;
37459;SDS011;23318;50.966;5.284;2023-07-31T04:08:21;9.25;;;3.92;;
37459;SDS011;23318;50.966;5.284;2023-07-31T04:10:50;12.55;;;4.30;;
37459;SDS011;23318;50.966;5.284;2023-07-31T04:13:15;8.05;;;4.40;;
37459;SDS011;23318;50.966;5.284;2023-07-31T04:15:41;11.00;;;4.07;;
37459;SDS011;23318;50.966;5.284;2023-07-31T04:18:07;9.70;;;3.30;;
37459;SDS011;23318;50.966;5.284;2023-07-31T04:20:33;6.60;;;3.95;;
37459;SDS011;23318;50.966;5.284;2023-07-31T04:22:59;9.23;;;4.45;;
37459;SDS011;23318;50.966;5.284;2023-07-31T04:25:24;7.95;;;3.90;;
37459;SDS011;23318;50.966;5.284;2023-07-31T04:27:50;8.85;;;3.90;;
37459;SDS011;23318;50.966;5.284;2023-07-31T04:30:15;9.68;;;3.90;;
37459;SDS011;23318;50.966;5.284;2023-07-31T04:32:41;12.05;;;4.55;;
37459;SDS011;23318;50.966;5.284;2023-07-31T04:35:07;11.98;;;4.20;;
37459;SDS011;23318;50.966;5.284;2023-07-31T04:37:33;5.60;;;3.92;;
37459;SDS011;23318;50.966;5.284;2023-07-31T04:39:58;8.80;;;4.18;;
37459;SDS011;23318;50.966;5.284;2023-07-31T04:42:24;7.43;;;4.10;;
37459;SDS011;23318;50.966;5.284;2023-07-31T04:44:50;9.75;;;4.20;;
37459;SDS011;23318;50.966;5.284;2023-07-31T04:47:15;12.05;;;4.45;;
37459;SDS011;23318;50.966;5.284;2023-07-31T04:49:41;10.50;;;4.72;;
37459;SDS011;23318;50.966;5.284;2023-07-31T04:52:07;13.10;;;4.60;;
37459;SDS011;23318;50.966;5.284;2023-07-31T04:54:32;10.05;;;4.95;;
37459;SDS011;23318;50.966;5.284;2023-07-31T04:56:58;13.27;;;4.82;;
37459;SDS011;23318;50.966;5.284;2023-07-31T04:59:24;8.65;;;4.88;;
37459;SDS011;23318;50.966;5.284;2023-07-31T05:01:49;13.77;;;4.82;;
37459;SDS011;23318;50.966;5.284;2023-07-31T05:04:15;11.10;;;4.75;;
37459;SDS011;23318;50.966;5.284;2023-07-31T05:06:41;11.10;;;5.45;;
37459;SDS011;23318;50.966;5.284;2023-07-31T05:09:07;10.82;;;5.47;;
37459;SDS011;23318;50.966;5.284;2023-07-31T05:11:34;11.70;;;5.38;;
37459;SDS011;23318;50.966;5.284;2023-07-31T05:14:00;12.63;;;5.25;;
37459;SDS011;23318;50.966;5.284;2023-07-31T05:16:25;13.90;;;5.03;;
37459;SDS011;23318;50.966;5.284;2023-07-31T05:18:51;14.20;;;5.45;;
37459;SDS011;23318;50.966;5.284;2023-07-31T05:21:16;14.13;;;5.57;;
37459;SDS011;23318;50.966;5.284;2023-07-31T05:23:42;12.32;;;5.55;;
37459;SDS011;23318;50.966;5.284;2023-07-31T05:26:08;12.93;;;5.43;;
37459;SDS011;23318;50.966;5.284;2023-07-31T05:28:36;11.23;;;5.82;;
37459;SDS011;23318;50.966;5.284;2023-07-31T05:31:03;9.55;;;5.05;;
37459;SDS011;23318;50.966;5.284;2023-07-31T05:33:29;8.15;;;4.80;;
37459;SDS011;23318;50.966;5.284;2023-07-31T05:35:55;8.30;;;4.85;;
37459;SDS011;23318;50.966;5.284;2023-07-31T05:38:21;10.07;;;5.20;;
37459;SDS011;23318;50.966;5.284;2023-07-31T05:40:47;11.02;;;4.93;;
37459;SDS011;23318;50.966;5.284;2023-07-31T05:43:13;11.38;;;5.03;;
37459;SDS011;23318;50.966;5.284;2023-07-31T05:45:40;10.18;;;4.88;;
37459;SDS011;23318;50.966;5.284;2023-07-31T05:48:06;10.82;;;4.95;;
37459;SDS011;23318;50.966;5.284;2023-07-31T05:50:32;8.30;;;4.22;;
37459;SDS011;23318;50.966;5.284;2023-07-31T05:52:58;10.65;;;5.47;;
37459;SDS011;23318;50.966;5.284;2023-07-31T05:55:24;10.35;;;5.45;;
37459;SDS011;23318;50.966;5.284;2023-07-31T05:57:52;10.45;;;4.78;;
37459;SDS011;23318;50.966;5.284;2023-07-31T06:00:18;15.13;;;5.22;;
37459;SDS011;23318;50.966;5.284;2023-07-31T06:02:43;10.80;;;4.53;;
37459;SDS011;23318;50.966;5.284;2023-07-31T06:05:09;10.80;;;4.97;;
37459;SDS011;23318;50.966;5.284;2023-07-31T06:07:35;11.07;;;4.80;;
37459;SDS011;23318;50.966;5.284;2023-07-31T06:10:01;12.18;;;4.63;;
37459;SDS011;23318;50.966;5.284;2023-07-31T06:12:30;12.32;;;4.72;;
37459;SDS011;23318;50.966;5.284;2023-07-31T06:14:59;10.40;;;4.55;;
37459;SDS011;23318;50.966;5.284;2023-07-31T06:17:25;11.18;;;4.65;;
37459;SDS011;23318;50.966;5.284;2023-07-31T06:19:53;12.32;;;4.50;;
37459;SDS011;23318;50.966;5.284;2023-07-31T06:22:19;8.73;;;4.43;;
37459;SDS011;23318;50.966;5.284;2023-07-31T06:24:46;8.43;;;4.72;;
37459;SDS011;23318;50.966;5.284;2023-07-31T06:27:11;8.57;;;3.95;;
37459;SDS011;23318;50.966;5.284;2023-07-31T06:29:37;12.07;;;4.88;;
37459;SDS011;23318;50.966;5.284;2023-07-31T06:32:03;10.32;;;4.50;;
37459;SDS011;23318;50.966;5.284;2023-07-31T06:34:29;11.82;;;4.78;;
37459;SDS011;23318;50.966;5.284;2023-07-31T06:36:55;9.63;;;4.05;;
37459;SDS011;23318;50.966;5.284;2023-07-31T06:39:21;9.20;;;4.88;;
37459;SDS011;23318;50.966;5.284;2023-07-31T06:41:47;11.50;;;4.72;;
37459;SDS011;23318;50.966;5.284;2023-07-31T06:44:12;13.43;;;4.78;;
37459;SDS011;23318;50.966;5.284;2023-07-31T06:46:38;13.15;;;4.85;;
37459;SDS011;23318;50.966;5.284;2023-07-31T06:49:04;9.68;;;4.75;;
37459;SDS011;23318;50.966;5.284;2023-07-31T06:51:29;11.70;;;4.95;;
37459;SDS011;23318;50.966;5.284;2023-07-31T06:53:56;11.63;;;4.60;;
37459;SDS011;23318;50.966;5.284;2023-07-31T06:56:22;15.10;;;5.10;;
37459;SDS011;23318;50.966;5.284;2023-07-31T06:58:48;11.48;;;4.70;;
37459;SDS011;23318;50.966;5.284;2023-07-31T07:01:14;15.30;;;4.55;;
37459;SDS011;23318;50.966;5.284;2023-07-31T07:03:39;12.05;;;4.63;;
37459;SDS011;23318;50.966;5.284;2023-07-31T07:06:05;7.88;;;4.32;;
37459;SDS011;23318;50.966;5.284;2023-07-31T07:08:31;8.88;;;4.78;;
37459;SDS011;23318;50.966;5.284;2023-07-31T07:10:56;11.13;;;4.38;;
37459;SDS011;23318;50.966;5.284;2023-07-31T07:13:22;11.48;;;4.82;;
37459;SDS011;23318;50.966;5.284;2023-07-31T07:15:48;17.58;;;4.88;;
37459;SDS011;23318;50.966;5.284;2023-07-31T07:18:14;13.95;;;5.57;;
37459;SDS011;23318;50.966;5.284;2023-07-31T07:20:40;11.10;;;4.90;;
37459;SDS011;23318;50.966;5.284;2023-07-31T07:23:10;12.63;;;5.03;;
37459;SDS011;23318;50.966;5.284;2023-07-31T07:25:37;12.13;;;4.45;;
37459;SDS011;23318;50.966;5.284;2023-07-31T07:28:03;10.30;;;4.30;;
37459;SDS011;23318;50.966;5.284;2023-07-31T07:30:29;13.68;;;4.50;;
37459;SDS011;23318;50.966;5.284;2023-07-31T07:32:54;10.48;;;4.95;;
37459;SDS011;23318;50.966;5.284;2023-07-31T07:35:20;11.15;;;4.65;;
37459;SDS011;23318;50.966;5.284;2023-07-31T07:37:48;9.45;;;4.45;;
37459;SDS011;23318;50.966;5.284;2023-07-31T07:40:15;10.68;;;4.60;;
37459;SDS011;23318;50.966;5.284;2023-07-31T07:42:40;10.55;;;4.88;;
37459;SDS011;23318;50.966;5.284;2023-07-31T07:45:06;12.70;;;4.63;;
37459;SDS011;23318;50.966;5.284;2023-07-31T07:47:32;9.50;;;4.55;;
37459;SDS011;23318;50.966;5.284;2023-07-31T07:49:58;7.45;;;3.88;;
37459;SDS011;23318;50.966;5.284;2023-07-31T07:52:24;9.23;;;4.32;;
37459;SDS011;23318;50.966;5.284;2023-07-31T07:54:49;11.77;;;4.13;;
37459;SDS011;23318;50.966;5.284;2023-07-31T07:57:15;8.38;;;3.58;;
37459;SDS011;23318;50.966;5.284;2023-07-31T07:59:41;8.23;;;4.28;;
37459;SDS011;23318;50.966;5.284;2023-07-31T08:02:07;9.75;;;4.25;;
37459;SDS011;23318;50.966;5.284;2023-07-31T08:04:32;8.45;;;3.75;;
37459;SDS011;23318;50.966;5.284;2023-07-31T08:06:58;9.43;;;3.53;;
37459;SDS011;23318;50.966;5.284;2023-07-31T08:09:24;7.75;;;3.63;;
37459;SDS011;23318;50.966;5.284;2023-07-31T08:11:50;6.47;;;3.65;;
37459;SDS011;23318;50.966;5.284;2023-07-31T08:14:15;8.50;;;3.92;;
37459;SDS011;23318;50.966;5.284;2023-07-31T08:16:41;8.25;;;3.60;;
37459;SDS011;23318;50.966;5.284;2023-07-31T08:19:07;8.77;;;4.10;;
37459;SDS011;23318;50.966;5.284;2023-07-31T08:21:32;7.38;;;3.53;;
37459;SDS011;23318;50.966;5.284;2023-07-31T08:23:58;7.07;;;3.53;;
37459;SDS011;23318;50.966;5.284;2023-07-31T08:26:24;9.00;;;3.97;;
37459;SDS011;23318;50.966;5.284;2023-07-31T08:28:49;6.88;;;3.10;;
37459;SDS011;23318;50.966;5.284;2023-07-31T08:31:15;7.65;;;3.50;;
37459;SDS011;23318;50.966;5.284;2023-07-31T08:33:41;7.88;;;3.13;;
37459;SDS011;23318;50.966;5.284;2023-07-31T08:36:06;7.20;;;3.55;;
37459;SDS011;23318;50.966;5.284;2023-07-31T08:38:32;7.10;;;3.30;;
37459;SDS011;23318;50.966;5.284;2023-07-31T08:40:58;6.80;;;3.17;;
37459;SDS011;23318;50.966;5.284;2023-07-31T08:43:26;5.90;;;2.80;;
37459;SDS011;23318;50.966;5.284;2023-07-31T08:45:52;7.68;;;3.58;;
37459;SDS011;23318;50.966;5.284;2023-07-31T08:48:19;6.60;;;3.22;;
37459;SDS011;23318;50.966;5.284;2023-07-31T08:50:47;7.97;;;3.70;;
37459;SDS011;23318;50.966;5.284;2023-07-31T08:53:13;7.88;;;3.15;;
37459;SDS011;23318;50.966;5.284;2023-07-31T08:55:38;6.18;;;3.28;;
37459;SDS011;23318;50.966;5.284;2023-07-31T08:58:05;9.18;;;3.45;;
37459;SDS011;23318;50.966;5.284;2023-07-31T09:00:34;5.57;;;3.13;;
37459;SDS011;23318;50.966;5.284;2023-07-31T09:03:14;7.43;;;3.63;;
37459;SDS011;23318;50.966;5.284;2023-07-31T09:05:43;10.20;;;4.03;;
37459;SDS011;23318;50.966;5.284;2023-07-31T09:08:10;6.85;;;3.42;;
37459;SDS011;23318;50.966;5.284;2023-07-31T09:10:41;6.03;;;3.47;;
37459;SDS011;23318;50.966;5.284;2023-07-31T09:13:08;4.60;;;3.40;;
37459;SDS011;23318;50.966;5.284;2023-07-31T09:15:34;7.60;;;3.00;;
37459;SDS011;23318;50.966;5.284;2023-07-31T09:18:01;12.68;;;3.30;;
37459;SDS011;23318;50.966;5.284;2023-07-31T09:20:27;6.25;;;3.22;;
37459;SDS011;23318;50.966;5.284;2023-07-31T09:22:53;6.20;;;3.17;;
37459;SDS011;23318;50.966;5.284;2023-07-31T09:25:24;6.70;;;3.75;;
37459;SDS011;23318;50.966;5.284;2023-07-31T09:27:54;8.15;;;3.63;;
37459;SDS011;23318;50.966;5.284;2023-07-31T09:30:22;4.95;;;2.90;;
37459;SDS011;23318;50.966;5.284;2023-07-31T09:32:48;8.05;;;3.05;;
37459;SDS011;23318;50.966;5.284;2023-07-31T09:35:18;6.22;;;3.08;;
37459;SDS011;23318;50.966;5.284;2023-07-31T09:37:51;7.97;;;2.70;;
37459;SDS011;23318;50.966;5.284;2023-07-31T09:40:28;6.30;;;2.50;;
37459;SDS011;23318;50.966;5.284;2023-07-31T09:43:02;4.57;;;2.40;;
37459;SDS011;23318;50.966;5.284;2023-07-31T09:45:35;3.22;;;2.03;;
37459;SDS011;23318;50.966;5.284;2023-07-31T09:48:03;4.68;;;2.05;;
37459;SDS011;23318;50.966;5.284;2023-07-31T09:50:32;4.72;;;2.60;;
37459;SDS011;23318;50.966;5.284;2023-07-31T09:52:58;4.82;;;2.78;;
37459;SDS011;23318;50.966;5.284;2023-07-31T09:55:24;3.15;;;1.90;;
37459;SDS011;23318;50.966;5.284;2023-07-31T09:57:50;3.80;;;2.10;;
37459;SDS011;23318;50.966;5.284;2023-07-31T10:00:17;2.88;;;1.55;;
37459;SDS011;23318;50.966;5.284;2023-07-31T10:02:44;3.67;;;2.00;;
37459;SDS011;23318;50.966;5.284;2023-07-31T10:05:12;2.75;;;1.80;;
37459;SDS011;23318;50.966;5.284;2023-07-31T10:07:40;4.07;;;2.00;;
37459;SDS011;23318;50.966;5.284;2023-07-31T10:10:09;3.28;;;2.03;;
37459;SDS011;23318;50.966;5.284;2023-07-31T10:12:35;4.30;;;2.13;;
37459;SDS011;23318;50.966;5.284;2023-07-31T10:15:01;5.28;;;2.47;;
37459;SDS011;23318;50.966;5.284;2023-07-31T10:17:27;4.50;;;2.67;;
37459;SDS011;23318;50.966;5.284;2023-07-31T10:19:56;3.08;;;2.08;;
37459;SDS011;23318;50.966;5.284;2023-07-31T10:22:23;7.68;;;2.42;;
37459;SDS011;23318;50.966;5.284;2023-07-31T10:24:50;5.80;;;2.50;;
37459;SDS011;23318;50.966;5.284;2023-07-31T10:27:19;4.25;;;2.78;;
37459;SDS011;23318;50.966;5.284;2023-07-31T10:29:45;5.72;;;2.78;;
37459;SDS011;23318;50.966;5.284;2023-07-31T10:32:13;2.95;;;2.20;;
37459;SDS011;23318;50.966;5.284;2023-07-31T10:34:40;7.40;;;2.55;;
37459;SDS011;23318;50.966;5.284;2023-07-31T10:37:19;6.72;;;2.90;;
37459;SDS011;23318;50.966;5.284;2023-07-31T10:39:58;5.78;;;2.72;;
37459;SDS011;23318;50.966;5.284;2023-07-31T10:42:28;5.75;;;2.72;;
37459;SDS011;23318;50.966;5.284;2023-07-31T10:45:00;5.72;;;2.83;;
37459;SDS011;23318;50.966;5.284;2023-07-31T10:52:44;8.70;;;4.00;;
37459;SDS011;23318;50.966;5.284;2023-07-31T10:55:15;8.35;;;3.67;;
37459;SDS011;23318;50.966;5.284;2023-07-31T10:57:46;6.30;;;3.80;;
37459;SDS011;23318;50.966;5.284;2023-07-31T11:00:28;8.80;;;3.67;;
37459;SDS011;23318;50.966;5.284;2023-07-31T11:02:58;8.95;;;4.25;;
37459;SDS011;23318;50.966;5.284;2023-07-31T11:08:27;9.05;;;4.07;;
37459;SDS011;23318;50.966;5.284;2023-07-31T11:13:32;10.18;;;3.90;;
37459;SDS011;23318;50.966;5.284;2023-07-31T11:16:12;6.30;;;4.15;;
37459;SDS011;23318;50.966;5.284;2023-07-31T11:18:42;9.30;;;3.58;;
37459;SDS011;23318;50.966;5.284;2023-07-31T11:21:13;10.80;;;3.97;;
37459;SDS011;23318;50.966;5.284;2023-07-31T11:26:12;9.30;;;4.10;;
37459;SDS011;23318;50.966;5.284;2023-07-31T11:28:38;5.75;;;3.15;;
37459;SDS011;23318;50.966;5.284;2023-07-31T11:31:04;9.65;;;4.47;;
37459;SDS011;23318;50.966;5.284;2023-07-31T11:33:30;7.22;;;3.38;;
37459;SDS011;23318;50.966;5.284;2023-07-31T11:35:56;8.75;;;4.55;;
37459;SDS011;23318;50.966;5.284;2023-07-31T11:38:28;7.90;;;3.83;;
37459;SDS011;23318;50.966;5.284;2023-07-31T11:41:00;9.40;;;4.20;;
37459;SDS011;23318;50.966;5.284;2023-07-31T11:43:27;9.30;;;3.60;;
37459;SDS011;23318;50.966;5.284;2023-07-31T11:45:57;5.25;;;3.10;;
37459;SDS011;23318;50.966;5.284;2023-07-31T11:50:52;8.45;;;3.53;;
37459;SDS011;23318;50.966;5.284;2023-07-31T11:53:22;8.77;;;3.50;;
37459;SDS011;23318;50.966;5.284;2023-07-31T11:56:01;8.73;;;4.30;;
37459;SDS011;23318;50.966;5.284;2023-07-31T11:58:30;8.70;;;3.75;;
37459;SDS011;23318;50.966;5.284;2023-07-31T12:00:56;7.25;;;4.00;;
37459;SDS011;23318;50.966;5.284;2023-07-31T12:03:23;8.88;;;4.05;;
37459;SDS011;23318;50.966;5.284;2023-07-31T12:05:49;9.40;;;3.88;;
37459;SDS011;23318;50.966;5.284;2023-07-31T12:08:15;6.35;;;3.63;;
37459;SDS011;23318;50.966;5.284;2023-07-31T12:10:41;12.32;;;4.50;;
37459;SDS011;23318;50.966;5.284;2023-07-31T12:13:10;8.13;;;4.30;;
37459;SDS011;23318;50.966;5.284;2023-07-31T12:15:41;8.13;;;3.13;;
37459;SDS011;23318;50.966;5.284;2023-07-31T12:18:11;8.88;;;3.92;;
37459;SDS011;23318;50.966;5.284;2023-07-31T12:20:41;10.85;;;4.45;;
37459;SDS011;23318;50.966;5.284;2023-07-31T12:23:18;8.68;;;3.33;;
37459;SDS011;23318;50.966;5.284;2023-07-31T12:26:06;9.73;;;3.30;;
37459;SDS011;23318;50.966;5.284;2023-07-31T12:31:18;8.55;;;3.67;;
37459;SDS011;23318;50.966;5.284;2023-07-31T12:33:45;7.57;;;4.18;;
37459;SDS011;23318;50.966;5.284;2023-07-31T12:36:13;6.10;;;3.42;;
37459;SDS011;23318;50.966;5.284;2023-07-31T12:38:40;9.00;;;3.92;;
37459;SDS011;23318;50.966;5.284;2023-07-31T12:41:06;4.78;;;3.20;;
37459;SDS011;23318;50.966;5.284;2023-07-31T12:43:36;5.40;;;3.20;;
37459;SDS011;23318;50.966;5.284;2023-07-31T12:46:03;6.88;;;3.45;;
37459;SDS011;23318;50.966;5.284;2023-07-31T12:48:30;7.65;;;3.50;;
37459;SDS011;23318;50.966;5.284;2023-07-31T12:50:56;8.75;;;3.63;;
37459;SDS011;23318;50.966;5.284;2023-07-31T12:53:22;6.90;;;3.15;;
37459;SDS011;23318;50.966;5.284;2023-07-31T12:55:48;6.28;;;3.75;;
37459;SDS011;23318;50.966;5.284;2023-07-31T12:58:14;7.45;;;3.45;;
37459;SDS011;23318;50.966;5.284;2023-07-31T13:00:39;12.98;;;3.40;;
37459;SDS011;23318;50.966;5.284;2023-07-31T13:03:05;5.38;;;3.20;;
37459;SDS011;23318;50.966;5.284;2023-07-31T13:05:31;7.68;;;3.28;;
37459;SDS011;23318;50.966;5.284;2023-07-31T13:07:56;6.57;;;3.35;;
37459;SDS011;23318;50.966;5.284;2023-07-31T13:10:23;8.07;;;3.78;;
37459;SDS011;23318;50.966;5.284;2023-07-31T13:12:49;6.15;;;3.47;;
37459;SDS011;23318;50.966;5.284;2023-07-31T13:15:15;9.90;;;4.05;;
37459;SDS011;23318;50.966;5.284;2023-07-31T13:17:41;6.50;;;3.15;;
37459;SDS011;23318;50.966;5.284;2023-07-31T13:20:07;8.63;;;3.85;;
37459;SDS011;23318;50.966;5.284;2023-07-31T13:22:33;7.82;;;4.10;;
37459;SDS011;23318;50.966;5.284;2023-07-31T13:24:59;8.55;;;3.72;;
37459;SDS011;23318;50.966;5.284;2023-07-31T13:27:24;9.43;;;4.55;;
37459;SDS011;23318;50.966;5.284;2023-07-31T13:29:51;8.93;;;3.65;;
37459;SDS011;23318;50.966;5.284;2023-07-31T13:32:17;8.32;;;4.32;;
37459;SDS011;23318;50.966;5.284;2023-07-31T13:34:47;7.60;;;3.75;;
37459;SDS011;23318;50.966;5.284;2023-07-31T13:37:13;11.88;;;3.63;;
37459;SDS011;23318;50.966;5.284;2023-07-31T13:39:39;9.35;;;3.70;;
37459;SDS011;23318;50.966;5.284;2023-07-31T13:42:06;8.55;;;3.53;;
37459;SDS011;23318;50.966;5.284;2023-07-31T13:44:36;9.15;;;3.90;;
37459;SDS011;23318;50.966;5.284;2023-07-31T13:47:02;11.98;;;4.32;;
37459;SDS011;23318;50.966;5.284;2023-07-31T13:49:28;8.60;;;3.75;;
37459;SDS011;23318;50.966;5.284;2023-07-31T13:51:55;9.15;;;4.03;;
37459;SDS011;23318;50.966;5.284;2023-07-31T13:54:21;10.50;;;4.50;;
37459;SDS011;23318;50.966;5.284;2023-07-31T13:56:47;11.90;;;4.80;;
37459;SDS011;23318;50.966;5.284;2023-07-31T13:59:13;8.73;;;3.85;;
37459;SDS011;23318;50.966;5.284;2023-07-31T14:01:41;7.57;;;4.20;;
37459;SDS011;23318;50.966;5.284;2023-07-31T14:04:07;7.47;;;3.67;;
37459;SDS011;23318;50.966;5.284;2023-07-31T14:06:32;7.05;;;4.57;;
37459;SDS011;23318;50.966;5.284;2023-07-31T14:08:58;8.65;;;4.20;;
37459;SDS011;23318;50.966;5.284;2023-07-31T14:11:24;11.48;;;4.25;;
37459;SDS011;23318;50.966;5.284;2023-07-31T14:13:50;13.85;;;4.90;;
37459;SDS011;23318;50.966;5.284;2023-07-31T14:16:15;8.35;;;3.88;;
37459;SDS011;23318;50.966;5.284;2023-07-31T14:18:42;8.75;;;3.78;;
37459;SDS011;23318;50.966;5.284;2023-07-31T14:21:08;8.48;;;4.20;;
37459;SDS011;23318;50.966;5.284;2023-07-31T14:23:33;10.18;;;4.55;;
37459;SDS011;23318;50.966;5.284;2023-07-31T14:25:59;9.50;;;4.30;;
37459;SDS011;23318;50.966;5.284;2023-07-31T14:28:25;8.82;;;4.45;;
37459;SDS011;23318;50.966;5.284;2023-07-31T14:30:50;10.95;;;4.57;;
37459;SDS011;23318;50.966;5.284;2023-07-31T14:33:16;13.05;;;4.72;;
37459;SDS011;23318;50.966;5.284;2023-07-31T14:35:42;10.10;;;5.47;;
37459;SDS011;23318;50.966;5.284;2023-07-31T14:38:07;9.10;;;4.72;;
37459;SDS011;23318;50.966;5.284;2023-07-31T14:40:33;8.95;;;4.15;;
37459;SDS011;23318;50.966;5.284;2023-07-31T14:42:59;8.32;;;3.53;;
37459;SDS011;23318;50.966;5.284;2023-07-31T14:45:24;6.95;;;3.65;;
37459;SDS011;23318;50.966;5.284;2023-07-31T14:47:50;5.30;;;3.40;;
37459;SDS011;23318;50.966;5.284;2023-07-31T14:50:16;7.38;;;3.33;;
37459;SDS011;23318;50.966;5.284;2023-07-31T14:52:41;6.13;;;3.80;;
37459;SDS011;23318;50.966;5.284;2023-07-31T14:55:07;9.25;;;3.75;;
37459;SDS011;23318;50.966;5.284;2023-07-31T14:57:34;7.18;;;3.90;;
37459;SDS011;23318;50.966;5.284;2023-07-31T15:00:00;8.38;;;3.83;;